sensor_id;sensor_type;location;lat;lon;timestamp;P1;durP1;ratioP1;P2;durP2;ratioP2
33672;SDS011;20011;51.510;9.942;2022-07-23T00:00:22;9.27;;;6.35;;
33672;SDS011;20011;51.510;9.942;2022-07-23T00:02:50;10.70;;;5.97;;
33672;SDS011;20011;51.510;9.942;2022-07-23T00:05:17;9.95;;;6.20;;
33672;SDS011;20011;51.510;9.942;2022-07-23T00:07:44;23.45;;;6.30;;
33672;SDS011;20011;51.510;9.942;2022-07-23T00:10:12;14.40;;;7.03;;
33672;SDS011;20011;51.510;9.942;2022-07-23T00:12:39;12.25;;;7.15;;
33672;SDS011;20011;51.510;9.942;2022-07-23T00:15:17;9.95;;;6.90;;
33672;SDS011;20011;51.510;9.942;2022-07-23T00:17:44;10.77;;;6.53;;
33672;SDS011;20011;51.510;9.942;2022-07-23T00:20:12;23.88;;;7.57;;
33672;SDS011;20011;51.510;9.942;2022-07-23T00:23:13;11.40;;;7.22;;
33672;SDS011;20011;51.510;9.942;2022-07-23T00:25:34;11.88;;;7.28;;
33672;SDS011;20011;51.510;9.942;2022-07-23T00:28:01;16.60;;;7.00;;
33672;SDS011;20011;51.510;9.942;2022-07-23T00:30:30;10.77;;;7.00;;
33672;SDS011;20011;51.510;9.942;2022-07-23T00:32:59;11.88;;;6.25;;
33672;SDS011;20011;51.510;9.942;2022-07-23T00:35:29;8.98;;;6.15;;
33672;SDS011;20011;51.510;9.942;2022-07-23T00:37:58;9.15;;;6.70;;
33672;SDS011;20011;51.510;9.942;2022-07-23T00:40:26;12.90;;;7.13;;
33672;SDS011;20011;51.510;9.942;2022-07-23T00:42:53;11.68;;;7.45;;
33672;SDS011;20011;51.510;9.942;2022-07-23T00:45:21;16.73;;;7.07;;
33672;SDS011;20011;51.510;9.942;2022-07-23T00:47:48;15.07;;;6.88;;
33672;SDS011;20011;51.510;9.942;2022-07-23T00:50:16;12.02;;;7.22;;
33672;SDS011;20011;51.510;9.942;2022-07-23T00:52:43;10.27;;;7.25;;
33672;SDS011;20011;51.510;9.942;2022-07-23T00:55:11;17.25;;;6.72;;
33672;SDS011;20011;51.510;9.942;2022-07-23T00:57:39;28.98;;;6.50;;
33672;SDS011;20011;51.510;9.942;2022-07-23T01:00:08;15.23;;;6.90;;
33672;SDS011;20011;51.510;9.942;2022-07-23T01:02:37;10.98;;;6.45;;
33672;SDS011;20011;51.510;9.942;2022-07-23T01:05:05;9.70;;;7.18;;
33672;SDS011;20011;51.510;9.942;2022-07-23T01:07:33;12.20;;;7.70;;
33672;SDS011;20011;51.510;9.942;2022-07-23T01:10:01;11.98;;;7.15;;
33672;SDS011;20011;51.510;9.942;2022-07-23T01:12:29;9.98;;;6.88;;
33672;SDS011;20011;51.510;9.942;2022-07-23T01:14:58;11.40;;;6.70;;
33672;SDS011;20011;51.510;9.942;2022-07-23T01:17:28;10.82;;;6.35;;
33672;SDS011;20011;51.510;9.942;2022-07-23T01:19:55;12.38;;;7.38;;
33672;SDS011;20011;51.510;9.942;2022-07-23T01:22:28;12.93;;;7.47;;
33672;SDS011;20011;51.510;9.942;2022-07-23T01:24:55;13.18;;;6.15;;
33672;SDS011;20011;51.510;9.942;2022-07-23T01:27:25;9.93;;;6.23;;
33672;SDS011;20011;51.510;9.942;2022-07-23T01:29:57;12.40;;;6.30;;
33672;SDS011;20011;51.510;9.942;2022-07-23T01:32:26;8.05;;;5.80;;
33672;SDS011;20011;51.510;9.942;2022-07-23T01:34:54;17.65;;;6.45;;
33672;SDS011;20011;51.510;9.942;2022-07-23T01:37:21;9.35;;;6.63;;
33672;SDS011;20011;51.510;9.942;2022-07-23T01:39:49;12.65;;;6.35;;
33672;SDS011;20011;51.510;9.942;2022-07-23T01:42:17;9.95;;;6.85;;
33672;SDS011;20011;51.510;9.942;2022-07-23T01:44:46;9.20;;;6.78;;
33672;SDS011;20011;51.510;9.942;2022-07-23T01:47:18;12.30;;;7.15;;
33672;SDS011;20011;51.510;9.942;2022-07-23T01:49:47;11.32;;;7.88;;
33672;SDS011;20011;51.510;9.942;2022-07-23T01:52:38;11.88;;;6.88;;
33672;SDS011;20011;51.510;9.942;2022-07-23T01:55:06;14.68;;;6.68;;
33672;SDS011;20011;51.510;9.942;2022-07-23T01:57:35;7.90;;;6.53;;
33672;SDS011;20011;51.510;9.942;2022-07-23T02:00:03;12.65;;;7.68;;
33672;SDS011;20011;51.510;9.942;2022-07-23T02:02:38;16.83;;;7.60;;
33672;SDS011;20011;51.510;9.942;2022-07-23T02:05:06;13.38;;;7.45;;
33672;SDS011;20011;51.510;9.942;2022-07-23T02:07:34;22.08;;;7.82;;
33672;SDS011;20011;51.510;9.942;2022-07-23T02:10:01;14.18;;;8.95;;
33672;SDS011;20011;51.510;9.942;2022-07-23T02:12:28;16.17;;;9.00;;
33672;SDS011;20011;51.510;9.942;2022-07-23T02:14:56;14.70;;;8.55;;
33672;SDS011;20011;51.510;9.942;2022-07-23T02:17:24;14.73;;;8.65;;
33672;SDS011;20011;51.510;9.942;2022-07-23T02:19:52;9.85;;;7.40;;
33672;SDS011;20011;51.510;9.942;2022-07-23T02:22:20;17.23;;;8.63;;
33672;SDS011;20011;51.510;9.942;2022-07-23T02:24:48;30.17;;;10.50;;
33672;SDS011;20011;51.510;9.942;2022-07-23T02:27:22;15.65;;;9.63;;
33672;SDS011;20011;51.510;9.942;2022-07-23T02:29:49;18.52;;;9.60;;
33672;SDS011;20011;51.510;9.942;2022-07-23T02:32:17;20.98;;;10.30;;
33672;SDS011;20011;51.510;9.942;2022-07-23T02:34:44;19.92;;;10.75;;
33672;SDS011;20011;51.510;9.942;2022-07-23T02:37:12;26.65;;;10.73;;
33672;SDS011;20011;51.510;9.942;2022-07-23T02:39:40;18.65;;;11.77;;
33672;SDS011;20011;51.510;9.942;2022-07-23T02:42:07;23.17;;;11.98;;
33672;SDS011;20011;51.510;9.942;2022-07-23T02:44:35;22.35;;;11.10;;
33672;SDS011;20011;51.510;9.942;2022-07-23T02:47:03;15.90;;;11.73;;
33672;SDS011;20011;51.510;9.942;2022-07-23T02:49:32;29.00;;;13.10;;
33672;SDS011;20011;51.510;9.942;2022-07-23T02:52:02;19.55;;;12.02;;
33672;SDS011;20011;51.510;9.942;2022-07-23T02:54:30;20.70;;;13.73;;
33672;SDS011;20011;51.510;9.942;2022-07-23T02:56:57;27.77;;;13.13;;
33672;SDS011;20011;51.510;9.942;2022-07-23T02:59:25;18.10;;;11.90;;
33672;SDS011;20011;51.510;9.942;2022-07-23T03:01:53;18.27;;;12.70;;
33672;SDS011;20011;51.510;9.942;2022-07-23T03:04:20;17.95;;;11.73;;
33672;SDS011;20011;51.510;9.942;2022-07-23T03:06:48;18.77;;;12.57;;
33672;SDS011;20011;51.510;9.942;2022-07-23T03:09:15;32.20;;;12.75;;
33672;SDS011;20011;51.510;9.942;2022-07-23T03:11:43;20.92;;;12.30;;
33672;SDS011;20011;51.510;9.942;2022-07-23T03:14:10;19.58;;;12.57;;
33672;SDS011;20011;51.510;9.942;2022-07-23T03:16:39;39.07;;;15.37;;
33672;SDS011;20011;51.510;9.942;2022-07-23T03:19:07;26.77;;;13.93;;
33672;SDS011;20011;51.510;9.942;2022-07-23T03:21:34;20.77;;;12.90;;
33672;SDS011;20011;51.510;9.942;2022-07-23T03:24:09;17.05;;;11.90;;
33672;SDS011;20011;51.510;9.942;2022-07-23T03:26:37;26.27;;;12.52;;
33672;SDS011;20011;51.510;9.942;2022-07-23T03:29:04;20.40;;;12.02;;
33672;SDS011;20011;51.510;9.942;2022-07-23T03:31:31;26.52;;;13.13;;
33672;SDS011;20011;51.510;9.942;2022-07-23T03:33:59;22.85;;;13.15;;
33672;SDS011;20011;51.510;9.942;2022-07-23T03:36:28;23.23;;;11.82;;
33672;SDS011;20011;51.510;9.942;2022-07-23T03:38:56;20.90;;;12.35;;
33672;SDS011;20011;51.510;9.942;2022-07-23T03:41:26;21.80;;;11.13;;
33672;SDS011;20011;51.510;9.942;2022-07-23T03:43:56;18.73;;;12.80;;
33672;SDS011;20011;51.510;9.942;2022-07-23T03:46:25;20.73;;;11.63;;
33672;SDS011;20011;51.510;9.942;2022-07-23T03:48:53;20.80;;;12.23;;
33672;SDS011;20011;51.510;9.942;2022-07-23T03:51:24;23.50;;;11.60;;
33672;SDS011;20011;51.510;9.942;2022-07-23T03:53:52;25.52;;;12.85;;
33672;SDS011;20011;51.510;9.942;2022-07-23T03:56:21;17.10;;;11.07;;
33672;SDS011;20011;51.510;9.942;2022-07-23T03:58:48;18.70;;;10.38;;
33672;SDS011;20011;51.510;9.942;2022-07-23T04:01:15;19.63;;;11.80;;
33672;SDS011;20011;51.510;9.942;2022-07-23T04:03:43;20.85;;;11.60;;
33672;SDS011;20011;51.510;9.942;2022-07-23T04:06:10;23.00;;;13.00;;
33672;SDS011;20011;51.510;9.942;2022-07-23T04:08:38;20.55;;;12.38;;
33672;SDS011;20011;51.510;9.942;2022-07-23T04:11:05;17.67;;;11.52;;
33672;SDS011;20011;51.510;9.942;2022-07-23T04:13:33;25.00;;;12.05;;
33672;SDS011;20011;51.510;9.942;2022-07-23T04:16:02;19.33;;;11.70;;
33672;SDS011;20011;51.510;9.942;2022-07-23T04:18:30;26.00;;;13.77;;
33672;SDS011;20011;51.510;9.942;2022-07-23T04:21:09;22.05;;;11.55;;
33672;SDS011;20011;51.510;9.942;2022-07-23T04:23:37;18.98;;;11.07;;
33672;SDS011;20011;51.510;9.942;2022-07-23T04:26:05;17.92;;;12.00;;
33672;SDS011;20011;51.510;9.942;2022-07-23T04:28:33;17.75;;;11.70;;
33672;SDS011;20011;51.510;9.942;2022-07-23T04:31:03;18.10;;;11.50;;
33672;SDS011;20011;51.510;9.942;2022-07-23T04:33:31;19.45;;;11.52;;
33672;SDS011;20011;51.510;9.942;2022-07-23T04:36:03;24.63;;;11.50;;
33672;SDS011;20011;51.510;9.942;2022-07-23T04:38:30;21.52;;;10.80;;
33672;SDS011;20011;51.510;9.942;2022-07-23T04:41:01;22.52;;;12.20;;
33672;SDS011;20011;51.510;9.942;2022-07-23T04:43:29;25.60;;;11.52;;
33672;SDS011;20011;51.510;9.942;2022-07-23T04:45:56;22.17;;;11.68;;
33672;SDS011;20011;51.510;9.942;2022-07-23T04:48:24;26.88;;;12.70;;
33672;SDS011;20011;51.510;9.942;2022-07-23T04:51:02;21.17;;;11.20;;
33672;SDS011;20011;51.510;9.942;2022-07-23T04:53:30;18.73;;;10.90;;
33672;SDS011;20011;51.510;9.942;2022-07-23T04:55:59;16.70;;;11.48;;
33672;SDS011;20011;51.510;9.942;2022-07-23T04:58:29;30.17;;;11.60;;
33672;SDS011;20011;51.510;9.942;2022-07-23T05:00:58;15.73;;;10.00;;
33672;SDS011;20011;51.510;9.942;2022-07-23T05:03:27;20.27;;;10.00;;
33672;SDS011;20011;51.510;9.942;2022-07-23T05:05:54;19.80;;;11.75;;
33672;SDS011;20011;51.510;9.942;2022-07-23T05:08:21;20.30;;;11.20;;
33672;SDS011;20011;51.510;9.942;2022-07-23T05:10:52;21.65;;;10.90;;
33672;SDS011;20011;51.510;9.942;2022-07-23T05:13:20;17.70;;;11.63;;
33672;SDS011;20011;51.510;9.942;2022-07-23T05:15:50;16.00;;;10.60;;
33672;SDS011;20011;51.510;9.942;2022-07-23T05:18:18;21.13;;;10.88;;
33672;SDS011;20011;51.510;9.942;2022-07-23T05:20:46;26.42;;;11.23;;
33672;SDS011;20011;51.510;9.942;2022-07-23T05:23:17;20.70;;;11.23;;
33672;SDS011;20011;51.510;9.942;2022-07-23T05:25:46;25.25;;;12.43;;
33672;SDS011;20011;51.510;9.942;2022-07-23T05:28:15;17.67;;;11.98;;
33672;SDS011;20011;51.510;9.942;2022-07-23T05:30:48;22.10;;;10.55;;
33672;SDS011;20011;51.510;9.942;2022-07-23T05:33:20;14.68;;;10.90;;
33672;SDS011;20011;51.510;9.942;2022-07-23T05:35:47;17.95;;;11.85;;
33672;SDS011;20011;51.510;9.942;2022-07-23T05:38:35;21.08;;;13.05;;
33672;SDS011;20011;51.510;9.942;2022-07-23T05:41:03;19.50;;;12.63;;
33672;SDS011;20011;51.510;9.942;2022-07-23T05:43:31;20.50;;;12.13;;
33672;SDS011;20011;51.510;9.942;2022-07-23T05:46:03;21.63;;;10.45;;
33672;SDS011;20011;51.510;9.942;2022-07-23T05:48:32;21.95;;;11.82;;
33672;SDS011;20011;51.510;9.942;2022-07-23T05:51:05;25.00;;;11.63;;
33672;SDS011;20011;51.510;9.942;2022-07-23T05:53:34;20.98;;;11.23;;
33672;SDS011;20011;51.510;9.942;2022-07-23T05:56:18;26.05;;;11.43;;
33672;SDS011;20011;51.510;9.942;2022-07-23T05:58:45;23.80;;;11.45;;
33672;SDS011;20011;51.510;9.942;2022-07-23T06:03:49;22.77;;;12.35;;
33672;SDS011;20011;51.510;9.942;2022-07-23T06:06:17;19.27;;;11.30;;
33672;SDS011;20011;51.510;9.942;2022-07-23T06:08:45;18.52;;;11.23;;
33672;SDS011;20011;51.510;9.942;2022-07-23T06:11:13;24.65;;;11.40;;
33672;SDS011;20011;51.510;9.942;2022-07-23T06:13:40;18.80;;;11.68;;
33672;SDS011;20011;51.510;9.942;2022-07-23T06:16:08;22.65;;;11.25;;
33672;SDS011;20011;51.510;9.942;2022-07-23T06:18:36;18.35;;;10.40;;
33672;SDS011;20011;51.510;9.942;2022-07-23T06:21:03;20.13;;;10.75;;
33672;SDS011;20011;51.510;9.942;2022-07-23T06:23:50;20.25;;;11.18;;
33672;SDS011;20011;51.510;9.942;2022-07-23T06:26:18;27.20;;;11.65;;
33672;SDS011;20011;51.510;9.942;2022-07-23T06:28:45;22.92;;;11.35;;
33672;SDS011;20011;51.510;9.942;2022-07-23T06:31:13;15.02;;;10.88;;
33672;SDS011;20011;51.510;9.942;2022-07-23T06:33:40;26.77;;;10.57;;
33672;SDS011;20011;51.510;9.942;2022-07-23T06:36:08;21.52;;;10.98;;
33672;SDS011;20011;51.510;9.942;2022-07-23T06:38:35;21.20;;;11.20;;
33672;SDS011;20011;51.510;9.942;2022-07-23T06:41:03;24.05;;;11.85;;
33672;SDS011;20011;51.510;9.942;2022-07-23T06:43:30;18.05;;;11.35;;
33672;SDS011;20011;51.510;9.942;2022-07-23T06:45:58;17.67;;;10.82;;
33672;SDS011;20011;51.510;9.942;2022-07-23T06:48:25;14.93;;;10.30;;
33672;SDS011;20011;51.510;9.942;2022-07-23T06:50:54;20.27;;;12.02;;
33672;SDS011;20011;51.510;9.942;2022-07-23T06:53:23;20.55;;;10.68;;
33672;SDS011;20011;51.510;9.942;2022-07-23T06:55:51;18.73;;;11.43;;
33672;SDS011;20011;51.510;9.942;2022-07-23T06:58:18;24.20;;;12.45;;
33672;SDS011;20011;51.510;9.942;2022-07-23T07:00:46;17.70;;;11.70;;
33672;SDS011;20011;51.510;9.942;2022-07-23T07:03:13;26.27;;;10.68;;
33672;SDS011;20011;51.510;9.942;2022-07-23T07:05:41;21.63;;;11.10;;
33672;SDS011;20011;51.510;9.942;2022-07-23T07:08:08;22.02;;;11.40;;
33672;SDS011;20011;51.510;9.942;2022-07-23T07:10:36;19.02;;;11.55;;
33672;SDS011;20011;51.510;9.942;2022-07-23T07:13:03;18.13;;;9.88;;
33672;SDS011;20011;51.510;9.942;2022-07-23T07:15:30;18.90;;;9.77;;
33672;SDS011;20011;51.510;9.942;2022-07-23T07:17:58;18.17;;;8.98;;
33672;SDS011;20011;51.510;9.942;2022-07-23T07:20:25;16.83;;;9.95;;
33672;SDS011;20011;51.510;9.942;2022-07-23T07:22:53;17.77;;;10.30;;
33672;SDS011;20011;51.510;9.942;2022-07-23T07:25:20;18.20;;;9.15;;
33672;SDS011;20011;51.510;9.942;2022-07-23T07:27:48;23.88;;;9.80;;
33672;SDS011;20011;51.510;9.942;2022-07-23T07:30:15;16.60;;;10.05;;
33672;SDS011;20011;51.510;9.942;2022-07-23T07:32:42;14.32;;;9.02;;
33672;SDS011;20011;51.510;9.942;2022-07-23T07:35:25;12.88;;;9.55;;
33672;SDS011;20011;51.510;9.942;2022-07-23T07:37:53;15.77;;;8.85;;
33672;SDS011;20011;51.510;9.942;2022-07-23T07:40:20;12.55;;;8.10;;
33672;SDS011;20011;51.510;9.942;2022-07-23T07:42:48;14.95;;;7.25;;
33672;SDS011;20011;51.510;9.942;2022-07-23T07:45:19;18.27;;;8.93;;
33672;SDS011;20011;51.510;9.942;2022-07-23T07:47:47;13.88;;;8.25;;
33672;SDS011;20011;51.510;9.942;2022-07-23T07:50:14;17.65;;;7.45;;
33672;SDS011;20011;51.510;9.942;2022-07-23T07:52:42;19.52;;;7.53;;
33672;SDS011;20011;51.510;9.942;2022-07-23T07:55:10;12.60;;;7.50;;
33672;SDS011;20011;51.510;9.942;2022-07-23T07:57:37;12.38;;;7.43;;
33672;SDS011;20011;51.510;9.942;2022-07-23T08:00:05;13.68;;;6.68;;
33672;SDS011;20011;51.510;9.942;2022-07-23T08:02:41;10.60;;;6.38;;
33672;SDS011;20011;51.510;9.942;2022-07-23T08:05:09;10.95;;;5.90;;
33672;SDS011;20011;51.510;9.942;2022-07-23T08:07:37;10.45;;;5.45;;
33672;SDS011;20011;51.510;9.942;2022-07-23T08:10:09;14.00;;;6.05;;
33672;SDS011;20011;51.510;9.942;2022-07-23T08:12:40;13.55;;;6.13;;
33672;SDS011;20011;51.510;9.942;2022-07-23T08:15:16;10.43;;;5.45;;
33672;SDS011;20011;51.510;9.942;2022-07-23T08:17:45;11.20;;;6.38;;
33672;SDS011;20011;51.510;9.942;2022-07-23T08:20:14;11.13;;;5.80;;
33672;SDS011;20011;51.510;9.942;2022-07-23T08:22:44;7.25;;;5.05;;
33672;SDS011;20011;51.510;9.942;2022-07-23T08:25:25;11.50;;;5.70;;
33672;SDS011;20011;51.510;9.942;2022-07-23T08:27:57;14.55;;;5.50;;
33672;SDS011;20011;51.510;9.942;2022-07-23T08:30:25;13.10;;;5.78;;
33672;SDS011;20011;51.510;9.942;2022-07-23T08:32:57;10.43;;;5.13;;
33672;SDS011;20011;51.510;9.942;2022-07-23T08:35:31;10.65;;;5.10;;
33672;SDS011;20011;51.510;9.942;2022-07-23T08:37:59;16.35;;;4.93;;
33672;SDS011;20011;51.510;9.942;2022-07-23T08:40:28;8.55;;;4.78;;
33672;SDS011;20011;51.510;9.942;2022-07-23T08:42:57;7.15;;;4.72;;
33672;SDS011;20011;51.510;9.942;2022-07-23T08:45:25;9.95;;;4.68;;
33672;SDS011;20011;51.510;9.942;2022-07-23T08:47:56;11.50;;;4.93;;
33672;SDS011;20011;51.510;9.942;2022-07-23T08:50:31;14.07;;;5.22;;
33672;SDS011;20011;51.510;9.942;2022-07-23T08:53:05;11.75;;;5.30;;
33672;SDS011;20011;51.510;9.942;2022-07-23T08:55:34;9.50;;;5.68;;
33672;SDS011;20011;51.510;9.942;2022-07-23T08:58:02;10.80;;;4.18;;
33672;SDS011;20011;51.510;9.942;2022-07-23T09:00:29;16.50;;;5.30;;
33672;SDS011;20011;51.510;9.942;2022-07-23T09:02:57;6.22;;;4.05;;
33672;SDS011;20011;51.510;9.942;2022-07-23T09:05:25;7.15;;;4.70;;
33672;SDS011;20011;51.510;9.942;2022-07-23T09:10:57;10.23;;;3.97;;
33672;SDS011;20011;51.510;9.942;2022-07-23T09:16:05;9.93;;;4.45;;
33672;SDS011;20011;51.510;9.942;2022-07-23T09:18:35;4.88;;;3.80;;
33672;SDS011;20011;51.510;9.942;2022-07-23T09:21:05;8.27;;;4.28;;
33672;SDS011;20011;51.510;9.942;2022-07-23T09:23:56;10.20;;;3.80;;
33672;SDS011;20011;51.510;9.942;2022-07-23T09:26:37;5.50;;;3.92;;
33672;SDS011;20011;51.510;9.942;2022-07-23T09:34:13;7.45;;;3.60;;
33672;SDS011;20011;51.510;9.942;2022-07-23T09:36:55;6.25;;;3.70;;
33672;SDS011;20011;51.510;9.942;2022-07-23T09:39:35;5.25;;;3.63;;
33672;SDS011;20011;51.510;9.942;2022-07-23T09:44:40;8.00;;;3.70;;
33672;SDS011;20011;51.510;9.942;2022-07-23T09:47:11;8.68;;;3.97;;
33672;SDS011;20011;51.510;9.942;2022-07-23T09:49:39;13.38;;;4.50;;
33672;SDS011;20011;51.510;9.942;2022-07-23T09:52:06;5.63;;;3.88;;
33672;SDS011;20011;51.510;9.942;2022-07-23T09:54:35;8.32;;;4.43;;
33672;SDS011;20011;51.510;9.942;2022-07-23T09:57:11;6.47;;;3.75;;
33672;SDS011;20011;51.510;9.942;2022-07-23T09:59:43;7.78;;;4.35;;
33672;SDS011;20011;51.510;9.942;2022-07-23T10:02:15;13.38;;;4.00;;
33672;SDS011;20011;51.510;9.942;2022-07-23T10:05:02;9.90;;;3.50;;
33672;SDS011;20011;51.510;9.942;2022-07-23T10:08:02;6.40;;;3.38;;
33672;SDS011;20011;51.510;9.942;2022-07-23T10:10:48;6.97;;;3.95;;
33672;SDS011;20011;51.510;9.942;2022-07-23T10:13:47;8.25;;;3.88;;
33672;SDS011;20011;51.510;9.942;2022-07-23T10:16:24;8.60;;;3.72;;
33672;SDS011;20011;51.510;9.942;2022-07-23T10:18:53;4.05;;;3.30;;
33672;SDS011;20011;51.510;9.942;2022-07-23T10:30:02;7.70;;;3.55;;
33672;SDS011;20011;51.510;9.942;2022-07-23T10:32:38;4.65;;;2.63;;
33672;SDS011;20011;51.510;9.942;2022-07-23T10:38:13;5.70;;;3.20;;
33672;SDS011;20011;51.510;9.942;2022-07-23T10:40:58;5.05;;;3.30;;
33672;SDS011;20011;51.510;9.942;2022-07-23T10:43:27;5.90;;;3.33;;
33672;SDS011;20011;51.510;9.942;2022-07-23T10:45:57;5.10;;;2.93;;
33672;SDS011;20011;51.510;9.942;2022-07-23T10:57:27;7.03;;;3.55;;
33672;SDS011;20011;51.510;9.942;2022-07-23T11:02:39;3.17;;;2.58;;
33672;SDS011;20011;51.510;9.942;2022-07-23T11:05:08;5.88;;;2.33;;
33672;SDS011;20011;51.510;9.942;2022-07-23T11:08:13;6.82;;;3.30;;
33672;SDS011;20011;51.510;9.942;2022-07-23T11:10:34;3.60;;;2.65;;
33672;SDS011;20011;51.510;9.942;2022-07-23T11:16:03;3.33;;;2.38;;
33672;SDS011;20011;51.510;9.942;2022-07-23T11:24:07;4.93;;;2.70;;
33672;SDS011;20011;51.510;9.942;2022-07-23T11:26:53;16.27;;;3.08;;
33672;SDS011;20011;51.510;9.942;2022-07-23T11:34:31;6.43;;;3.15;;
33672;SDS011;20011;51.510;9.942;2022-07-23T11:37:02;10.15;;;4.90;;
33672;SDS011;20011;51.510;9.942;2022-07-23T11:39:30;9.27;;;3.83;;
33672;SDS011;20011;51.510;9.942;2022-07-23T11:41:59;8.85;;;3.15;;
33672;SDS011;20011;51.510;9.942;2022-07-23T11:44:34;4.22;;;2.53;;
33672;SDS011;20011;51.510;9.942;2022-07-23T11:47:07;10.73;;;3.38;;
33672;SDS011;20011;51.510;9.942;2022-07-23T11:49:36;7.53;;;3.53;;
33672;SDS011;20011;51.510;9.942;2022-07-23T11:52:11;5.45;;;3.17;;
33672;SDS011;20011;51.510;9.942;2022-07-23T11:54:52;10.48;;;3.70;;
33672;SDS011;20011;51.510;9.942;2022-07-23T11:57:23;8.30;;;3.45;;
33672;SDS011;20011;51.510;9.942;2022-07-23T11:59:53;12.50;;;4.15;;
33672;SDS011;20011;51.510;9.942;2022-07-23T12:02:23;5.65;;;3.00;;
33672;SDS011;20011;51.510;9.942;2022-07-23T12:04:51;5.90;;;2.50;;
33672;SDS011;20011;51.510;9.942;2022-07-23T12:07:32;5.72;;;2.20;;
33672;SDS011;20011;51.510;9.942;2022-07-23T12:12:50;10.93;;;4.75;;
33672;SDS011;20011;51.510;9.942;2022-07-23T12:15:20;7.75;;;3.72;;
33672;SDS011;20011;51.510;9.942;2022-07-23T12:17:49;6.40;;;3.03;;
33672;SDS011;20011;51.510;9.942;2022-07-23T12:20:36;5.00;;;3.50;;
33672;SDS011;20011;51.510;9.942;2022-07-23T12:23:10;16.73;;;9.70;;
33672;SDS011;20011;51.510;9.942;2022-07-23T12:25:46;90.25;;;59.13;;
33672;SDS011;20011;51.510;9.942;2022-07-23T12:28:18;16.65;;;11.05;;
33672;SDS011;20011;51.510;9.942;2022-07-23T12:33:38;8.25;;;4.00;;
33672;SDS011;20011;51.510;9.942;2022-07-23T12:36:07;4.93;;;2.85;;
33672;SDS011;20011;51.510;9.942;2022-07-23T12:38:39;7.10;;;3.25;;
33672;SDS011;20011;51.510;9.942;2022-07-23T12:41:12;5.45;;;3.17;;
33672;SDS011;20011;51.510;9.942;2022-07-23T12:43:41;3.05;;;2.38;;
33672;SDS011;20011;51.510;9.942;2022-07-23T12:46:11;4.90;;;2.58;;
33672;SDS011;20011;51.510;9.942;2022-07-23T12:51:36;4.60;;;2.47;;
33672;SDS011;20011;51.510;9.942;2022-07-23T12:54:12;9.82;;;2.88;;
33672;SDS011;20011;51.510;9.942;2022-07-23T12:56:40;5.45;;;2.60;;
33672;SDS011;20011;51.510;9.942;2022-07-23T12:59:14;7.05;;;2.70;;
33672;SDS011;20011;51.510;9.942;2022-07-23T13:01:57;9.15;;;3.15;;
33672;SDS011;20011;51.510;9.942;2022-07-23T13:04:29;3.10;;;2.33;;
33672;SDS011;20011;51.510;9.942;2022-07-23T13:06:59;3.95;;;2.25;;
33672;SDS011;20011;51.510;9.942;2022-07-23T13:09:31;8.60;;;2.40;;
33672;SDS011;20011;51.510;9.942;2022-07-23T13:12:07;6.88;;;2.67;;
33672;SDS011;20011;51.510;9.942;2022-07-23T13:14:36;4.72;;;2.25;;
33672;SDS011;20011;51.510;9.942;2022-07-23T13:17:05;3.50;;;2.38;;
33672;SDS011;20011;51.510;9.942;2022-07-23T13:19:33;6.45;;;2.40;;
33672;SDS011;20011;51.510;9.942;2022-07-23T13:22:00;15.50;;;2.22;;
33672;SDS011;20011;51.510;9.942;2022-07-23T13:24:34;6.00;;;2.40;;
33672;SDS011;20011;51.510;9.942;2022-07-23T13:27:05;4.90;;;2.20;;
33672;SDS011;20011;51.510;9.942;2022-07-23T13:29:38;4.30;;;2.28;;
33672;SDS011;20011;51.510;9.942;2022-07-23T13:32:05;5.93;;;2.00;;
33672;SDS011;20011;51.510;9.942;2022-07-23T13:34:36;2.72;;;2.13;;
33672;SDS011;20011;51.510;9.942;2022-07-23T13:37:06;4.10;;;1.80;;
33672;SDS011;20011;51.510;9.942;2022-07-23T13:39:33;4.13;;;2.10;;
33672;SDS011;20011;51.510;9.942;2022-07-23T13:42:04;5.60;;;1.90;;
33672;SDS011;20011;51.510;9.942;2022-07-23T13:44:32;3.03;;;2.42;;
33672;SDS011;20011;51.510;9.942;2022-07-23T13:47:00;4.18;;;2.20;;
33672;SDS011;20011;51.510;9.942;2022-07-23T13:49:27;4.25;;;2.45;;
33672;SDS011;20011;51.510;9.942;2022-07-23T13:51:55;4.25;;;1.85;;
33672;SDS011;20011;51.510;9.942;2022-07-23T13:54:23;2.95;;;2.00;;
33672;SDS011;20011;51.510;9.942;2022-07-23T13:56:50;4.60;;;1.70;;
33672;SDS011;20011;51.510;9.942;2022-07-23T13:59:19;17.13;;;2.15;;
33672;SDS011;20011;51.510;9.942;2022-07-23T14:01:47;2.33;;;1.50;;
33672;SDS011;20011;51.510;9.942;2022-07-23T14:04:34;1.85;;;1.33;;
33672;SDS011;20011;51.510;9.942;2022-07-23T14:07:02;3.28;;;2.17;;
33672;SDS011;20011;51.510;9.942;2022-07-23T14:09:29;5.55;;;2.17;;
33672;SDS011;20011;51.510;9.942;2022-07-23T14:12:00;3.67;;;1.55;;
33672;SDS011;20011;51.510;9.942;2022-07-23T14:14:27;2.97;;;1.83;;
33672;SDS011;20011;51.510;9.942;2022-07-23T14:16:55;4.00;;;2.03;;
33672;SDS011;20011;51.510;9.942;2022-07-23T14:19:22;3.58;;;1.60;;
33672;SDS011;20011;51.510;9.942;2022-07-23T14:21:50;2.55;;;1.70;;
33672;SDS011;20011;51.510;9.942;2022-07-23T14:24:17;3.38;;;1.45;;
33672;SDS011;20011;51.510;9.942;2022-07-23T14:26:44;2.17;;;1.80;;
33672;SDS011;20011;51.510;9.942;2022-07-23T14:29:12;3.20;;;1.88;;
33672;SDS011;20011;51.510;9.942;2022-07-23T14:31:40;5.25;;;1.70;;
33672;SDS011;20011;51.510;9.942;2022-07-23T14:34:07;2.20;;;1.80;;
33672;SDS011;20011;51.510;9.942;2022-07-23T14:36:34;8.65;;;2.25;;
33672;SDS011;20011;51.510;9.942;2022-07-23T14:39:05;2.10;;;1.60;;
33672;SDS011;20011;51.510;9.942;2022-07-23T14:41:36;3.00;;;1.60;;
33672;SDS011;20011;51.510;9.942;2022-07-23T14:44:03;4.03;;;2.20;;
33672;SDS011;20011;51.510;9.942;2022-07-23T14:46:31;3.08;;;2.45;;
33672;SDS011;20011;51.510;9.942;2022-07-23T14:48:58;4.43;;;1.73;;
33672;SDS011;20011;51.510;9.942;2022-07-23T14:51:26;3.55;;;2.08;;
33672;SDS011;20011;51.510;9.942;2022-07-23T14:53:54;5.95;;;1.95;;
33672;SDS011;20011;51.510;9.942;2022-07-23T14:56:21;5.07;;;1.42;;
33672;SDS011;20011;51.510;9.942;2022-07-23T14:58:48;3.42;;;1.88;;
33672;SDS011;20011;51.510;9.942;2022-07-23T15:01:16;3.30;;;2.28;;
33672;SDS011;20011;51.510;9.942;2022-07-23T15:03:43;4.95;;;2.00;;
33672;SDS011;20011;51.510;9.942;2022-07-23T15:06:10;3.35;;;1.85;;
33672;SDS011;20011;51.510;9.942;2022-07-23T15:08:38;2.35;;;1.65;;
33672;SDS011;20011;51.510;9.942;2022-07-23T15:11:05;2.13;;;1.92;;
33672;SDS011;20011;51.510;9.942;2022-07-23T15:16:04;9.05;;;2.13;;
33672;SDS011;20011;51.510;9.942;2022-07-23T15:18:36;3.47;;;1.50;;
33672;SDS011;20011;51.510;9.942;2022-07-23T15:21:03;2.35;;;1.90;;
33672;SDS011;20011;51.510;9.942;2022-07-23T15:23:32;3.08;;;2.20;;
33672;SDS011;20011;51.510;9.942;2022-07-23T15:25:59;8.93;;;1.90;;
33672;SDS011;20011;51.510;9.942;2022-07-23T15:28:26;3.55;;;2.15;;
33672;SDS011;20011;51.510;9.942;2022-07-23T15:30:56;3.10;;;1.77;;
33672;SDS011;20011;51.510;9.942;2022-07-23T15:33:23;5.97;;;2.13;;
33672;SDS011;20011;51.510;9.942;2022-07-23T15:35:51;6.82;;;1.55;;
33672;SDS011;20011;51.510;9.942;2022-07-23T15:38:23;4.13;;;1.67;;
33672;SDS011;20011;51.510;9.942;2022-07-23T15:40:54;2.95;;;1.70;;
33672;SDS011;20011;51.510;9.942;2022-07-23T15:43:23;2.45;;;1.60;;
33672;SDS011;20011;51.510;9.942;2022-07-23T15:45:51;6.80;;;2.00;;
33672;SDS011;20011;51.510;9.942;2022-07-23T15:48:19;3.22;;;2.08;;
33672;SDS011;20011;51.510;9.942;2022-07-23T15:50:47;3.97;;;1.98;;
33672;SDS011;20011;51.510;9.942;2022-07-23T15:53:15;2.60;;;1.63;;
33672;SDS011;20011;51.510;9.942;2022-07-23T15:55:57;4.40;;;1.85;;